sensor_id;sensor_type;location;lat;lon;timestamp;pressure;altitude;pressure_sealevel;temperature;humidity
27805;BME280;15183;51.350;11.102;2022-10-31T00:01:26;100437.50;;;15.94;62.66
27805;BME280;15183;51.350;11.102;2022-10-31T00:03:53;100455.28;;;16.05;62.41
27805;BME280;15183;51.350;11.102;2022-10-31T00:06:21;100458.03;;;16.11;62.18
27805;BME280;15183;51.350;11.102;2022-10-31T00:08:53;100450.38;;;15.97;62.24
27805;BME280;15183;51.350;11.102;2022-10-31T00:11:21;100452.78;;;15.99;62.10
27805;BME280;15183;51.350;11.102;2022-10-31T00:13:47;100476.19;;;16.09;62.47
27805;BME280;15183;51.350;11.102;2022-10-31T00:16:21;100468.16;;;16.09;62.23
27805;BME280;15183;51.350;11.102;2022-10-31T00:18:53;100475.13;;;16.10;62.53
27805;BME280;15183;51.350;11.102;2022-10-31T00:21:20;100481.28;;;16.10;62.33
27805;BME280;15183;51.350;11.102;2022-10-31T00:23:47;100469.22;;;16.08;62.17
27805;BME280;15183;51.350;11.102;2022-10-31T00:26:14;100459.69;;;15.95;62.39
27805;BME280;15183;51.350;11.102;2022-10-31T00:28:41;100462.13;;;15.96;62.33
27805;BME280;15183;51.350;11.102;2022-10-31T00:31:10;100418.25;;;15.58;62.08
27805;BME280;15183;51.350;11.102;2022-10-31T00:33:38;100455.53;;;15.87;62.01
27805;BME280;15183;51.350;11.102;2022-10-31T00:36:06;100485.19;;;16.02;62.07
27805;BME280;15183;51.350;11.102;2022-10-31T00:38:33;100494.50;;;16.00;62.07
27805;BME280;15183;51.350;11.102;2022-10-31T00:41:00;100496.38;;;15.99;61.80
27805;BME280;15183;51.350;11.102;2022-10-31T00:43:26;100493.63;;;15.94;61.82
27805;BME280;15183;51.350;11.102;2022-10-31T00:45:53;100494.44;;;15.95;62.21
27805;BME280;15183;51.350;11.102;2022-10-31T00:48:19;100495.16;;;15.90;62.12
27805;BME280;15183;51.350;11.102;2022-10-31T00:50:45;100474.91;;;15.77;61.99
27805;BME280;15183;51.350;11.102;2022-10-31T00:53:12;100461.38;;;15.67;62.14
27805;BME280;15183;51.350;11.102;2022-10-31T00:55:38;100505.03;;;15.89;61.95
27805;BME280;15183;51.350;11.102;2022-10-31T00:58:05;100434.28;;;15.41;61.74
27805;BME280;15183;51.350;11.102;2022-10-31T01:00:31;100492.88;;;15.82;61.94
27805;BME280;15183;51.350;11.102;2022-10-31T01:02:58;100510.03;;;15.86;62.13
27805;BME280;15183;51.350;11.102;2022-10-31T01:05:24;100499.53;;;15.79;62.11
27805;BME280;15183;51.350;11.102;2022-10-31T01:07:50;100504.03;;;15.78;61.75
27805;BME280;15183;51.350;11.102;2022-10-31T01:10:17;100505.09;;;15.77;61.84
27805;BME280;15183;51.350;11.102;2022-10-31T01:12:47;100498.06;;;15.71;62.26
27805;BME280;15183;51.350;11.102;2022-10-31T01:15:20;100456.94;;;15.38;61.55
27805;BME280;15183;51.350;11.102;2022-10-31T01:17:48;100505.50;;;15.69;61.86
27805;BME280;15183;51.350;11.102;2022-10-31T01:20:15;100486.09;;;15.57;61.91
27805;BME280;15183;51.350;11.102;2022-10-31T01:22:42;100516.13;;;15.64;61.99
27805;BME280;15183;51.350;11.102;2022-10-31T01:25:10;100495.72;;;15.58;62.07
27805;BME280;15183;51.350;11.102;2022-10-31T01:27:36;100442.22;;;15.18;61.95
27805;BME280;15183;51.350;11.102;2022-10-31T01:30:04;100491.31;;;15.52;61.77
27805;BME280;15183;51.350;11.102;2022-10-31T01:32:31;100514.50;;;15.63;61.98
27805;BME280;15183;51.350;11.102;2022-10-31T01:34:58;100507.69;;;15.55;61.92
27805;BME280;15183;51.350;11.102;2022-10-31T01:37:24;100498.69;;;15.44;61.70
27805;BME280;15183;51.350;11.102;2022-10-31T01:39:51;100493.84;;;15.41;61.62
27805;BME280;15183;51.350;11.102;2022-10-31T01:42:22;100495.44;;;15.42;61.50
27805;BME280;15183;51.350;11.102;2022-10-31T01:45:01;100512.22;;;15.55;61.42
27805;BME280;15183;51.350;11.102;2022-10-31T01:47:45;100510.28;;;15.50;61.56
27805;BME280;15183;51.350;11.102;2022-10-31T01:50:42;100515.63;;;15.50;61.95
27805;BME280;15183;51.350;11.102;2022-10-31T01:53:11;100483.97;;;15.25;61.21
27805;BME280;15183;51.350;11.102;2022-10-31T01:55:41;100516.81;;;15.42;61.52
27805;BME280;15183;51.350;11.102;2022-10-31T01:58:19;100519.47;;;15.42;61.35
27805;BME280;15183;51.350;11.102;2022-10-31T02:00:51;100511.97;;;15.39;61.63
27805;BME280;15183;51.350;11.102;2022-10-31T02:03:20;100513.25;;;15.37;61.91
27805;BME280;15183;51.350;11.102;2022-10-31T02:05:49;100516.16;;;15.35;61.57
27805;BME280;15183;51.350;11.102;2022-10-31T02:08:31;100462.84;;;14.94;61.78
27805;BME280;15183;51.350;11.102;2022-10-31T02:11:00;100521.84;;;15.39;61.98
27805;BME280;15183;51.350;11.102;2022-10-31T02:13:28;100519.97;;;15.39;61.92
27805;BME280;15183;51.350;11.102;2022-10-31T02:15:58;100519.41;;;15.37;61.87
27805;BME280;15183;51.350;11.102;2022-10-31T02:18:28;100514.53;;;15.34;61.63
27805;BME280;15183;51.350;11.102;2022-10-31T02:26:59;100527.31;;;15.32;61.54
27805;BME280;15183;51.350;11.102;2022-10-31T02:35:46;100525.69;;;15.31;62.07
27805;BME280;15183;51.350;11.102;2022-10-31T02:38:29;100526.09;;;15.23;62.07
27805;BME280;15183;51.350;11.102;2022-10-31T02:44:02;100526.31;;;15.21;61.87
27805;BME280;15183;51.350;11.102;2022-10-31T02:47:11;100525.44;;;15.15;61.65
27805;BME280;15183;51.350;11.102;2022-10-31T02:52:37;100539.53;;;14.99;62.34
27805;BME280;15183;51.350;11.102;2022-10-31T02:58:11;100515.13;;;14.78;62.28
27805;BME280;15183;51.350;11.102;2022-10-31T03:01:18;100545.72;;;14.87;62.14
27805;BME280;15183;51.350;11.102;2022-10-31T03:04:29;100542.00;;;14.88;62.80
27805;BME280;15183;51.350;11.102;2022-10-31T03:07:45;100551.06;;;14.87;62.54
27805;BME280;15183;51.350;11.102;2022-10-31T03:10:45;100540.28;;;14.82;62.74
27805;BME280;15183;51.350;11.102;2022-10-31T03:13:31;100536.09;;;14.86;62.75
27805;BME280;15183;51.350;11.102;2022-10-31T03:16:27;100543.06;;;14.87;62.37
27805;BME280;15183;51.350;11.102;2022-10-31T03:24:06;100512.47;;;14.54;61.84
27805;BME280;15183;51.350;11.102;2022-10-31T03:26:36;100546.44;;;14.71;61.86
27805;BME280;15183;51.350;11.102;2022-10-31T03:29:11;100501.84;;;14.30;62.02
27805;BME280;15183;51.350;11.102;2022-10-31T03:31:47;100525.63;;;14.32;62.19
27805;BME280;15183;51.350;11.102;2022-10-31T03:34:16;100562.94;;;14.44;62.49
27805;BME280;15183;51.350;11.102;2022-10-31T03:36:45;100552.38;;;14.25;62.57
27805;BME280;15183;51.350;11.102;2022-10-31T03:39:15;100570.34;;;14.30;62.92
27805;BME280;15183;51.350;11.102;2022-10-31T03:41:59;100560.72;;;14.17;62.82
27805;BME280;15183;51.350;11.102;2022-10-31T03:44:29;100567.19;;;14.09;63.31
27805;BME280;15183;51.350;11.102;2022-10-31T03:46:58;100571.16;;;14.07;63.09
27805;BME280;15183;51.350;11.102;2022-10-31T03:49:25;100559.19;;;13.97;63.16
27805;BME280;15183;51.350;11.102;2022-10-31T03:52:24;100575.91;;;14.04;63.26
27805;BME280;15183;51.350;11.102;2022-10-31T03:55:23;100565.34;;;13.98;63.27
27805;BME280;15183;51.350;11.102;2022-10-31T03:57:59;100578.44;;;14.11;63.25
27805;BME280;15183;51.350;11.102;2022-10-31T04:00:31;100575.56;;;14.13;62.80
27805;BME280;15183;51.350;11.102;2022-10-31T04:03:11;100558.88;;;14.06;62.97
27805;BME280;15183;51.350;11.102;2022-10-31T04:05:39;100579.13;;;14.18;62.67
27805;BME280;15183;51.350;11.102;2022-10-31T04:08:13;100587.38;;;14.29;62.84
27805;BME280;15183;51.350;11.102;2022-10-31T04:10:43;100579.84;;;14.26;62.66
27805;BME280;15183;51.350;11.102;2022-10-31T04:13:14;100544.03;;;14.10;62.40
27805;BME280;15183;51.350;11.102;2022-10-31T04:15:42;100544.25;;;14.08;62.18
27805;BME280;15183;51.350;11.102;2022-10-31T04:18:09;100574.38;;;14.32;62.10
27805;BME280;15183;51.350;11.102;2022-10-31T04:20:39;100574.28;;;14.27;62.17
27805;BME280;15183;51.350;11.102;2022-10-31T04:23:20;100543.22;;;13.97;62.13
27805;BME280;15183;51.350;11.102;2022-10-31T04:25:48;100567.09;;;14.04;62.55
27805;BME280;15183;51.350;11.102;2022-10-31T04:28:15;100551.09;;;13.92;62.66
27805;BME280;15183;51.350;11.102;2022-10-31T04:30:41;100581.34;;;14.10;62.75
27805;BME280;15183;51.350;11.102;2022-10-31T04:33:08;100575.66;;;14.06;62.77
27805;BME280;15183;51.350;11.102;2022-10-31T04:35:34;100579.72;;;14.09;63.14
27805;BME280;15183;51.350;11.102;2022-10-31T04:38:01;100583.56;;;14.13;63.02
27805;BME280;15183;51.350;11.102;2022-10-31T04:40:27;100560.13;;;14.03;62.92
27805;BME280;15183;51.350;11.102;2022-10-31T04:42:54;100513.78;;;13.80;62.77
27805;BME280;15183;51.350;11.102;2022-10-31T04:45:20;100490.28;;;13.65;62.54
27805;BME280;15183;51.350;11.102;2022-10-31T04:47:47;100559.09;;;14.16;62.60
27805;BME280;15183;51.350;11.102;2022-10-31T04:50:13;100574.53;;;14.26;62.37
27805;BME280;15183;51.350;11.102;2022-10-31T04:52:42;100555.84;;;14.14;62.28
27805;BME280;15183;51.350;11.102;2022-10-31T04:55:09;100578.44;;;14.23;62.21
27805;BME280;15183;51.350;11.102;2022-10-31T04:57:48;100574.50;;;14.14;62.69
27805;BME280;15183;51.350;11.102;2022-10-31T05:00:18;100552.81;;;13.98;62.61
27805;BME280;15183;51.350;11.102;2022-10-31T05:02:57;100554.00;;;13.91;62.72
27805;BME280;15183;51.350;11.102;2022-10-31T05:05:27;100548.09;;;13.88;63.03
27805;BME280;15183;51.350;11.102;2022-10-31T05:07:54;100554.44;;;13.87;62.93
27805;BME280;15183;51.350;11.102;2022-10-31T05:10:25;100523.72;;;13.73;62.74
27805;BME280;15183;51.350;11.102;2022-10-31T05:13:01;100548.41;;;13.80;62.98
27805;BME280;15183;51.350;11.102;2022-10-31T05:15:28;100571.94;;;13.95;63.21
27805;BME280;15183;51.350;11.102;2022-10-31T05:17:56;100581.31;;;13.86;62.56
27805;BME280;15183;51.350;11.102;2022-10-31T05:20:26;100575.16;;;13.73;62.99
27805;BME280;15183;51.350;11.102;2022-10-31T05:22:55;100589.84;;;13.76;62.74
27805;BME280;15183;51.350;11.102;2022-10-31T05:25:26;100575.59;;;13.70;62.65
27805;BME280;15183;51.350;11.102;2022-10-31T05:27:53;100573.16;;;13.69;62.93
27805;BME280;15183;51.350;11.102;2022-10-31T05:30:23;100555.44;;;13.63;62.80
27805;BME280;15183;51.350;11.102;2022-10-31T05:32:51;100588.13;;;13.82;62.77
27805;BME280;15183;51.350;11.102;2022-10-31T05:35:27;100565.75;;;13.71;62.97
27805;BME280;15183;51.350;11.102;2022-10-31T05:37:55;100496.31;;;13.30;62.82
27805;BME280;15183;51.350;11.102;2022-10-31T05:40:22;100592.19;;;13.84;62.51
27805;BME280;15183;51.350;11.102;2022-10-31T05:42:51;100592.41;;;13.83;63.03
27805;BME280;15183;51.350;11.102;2022-10-31T05:45:20;100592.88;;;13.80;62.69
27805;BME280;15183;51.350;11.102;2022-10-31T05:47:55;100586.13;;;13.77;62.37
27805;BME280;15183;51.350;11.102;2022-10-31T05:50:23;100570.34;;;13.52;62.22
27805;BME280;15183;51.350;11.102;2022-10-31T05:53:02;100604.16;;;13.63;62.43
27805;BME280;15183;51.350;11.102;2022-10-31T05:55:30;100608.44;;;13.52;62.86
27805;BME280;15183;51.350;11.102;2022-10-31T05:58:00;100606.25;;;13.61;63.06
27805;BME280;15183;51.350;11.102;2022-10-31T06:00:27;100595.69;;;13.54;62.91
27805;BME280;15183;51.350;11.102;2022-10-31T06:03:02;100610.41;;;13.57;62.77
27805;BME280;15183;51.350;11.102;2022-10-31T06:05:30;100584.00;;;13.37;63.31
27805;BME280;15183;51.350;11.102;2022-10-31T06:07:56;100608.06;;;13.49;63.13
27805;BME280;15183;51.350;11.102;2022-10-31T06:10:24;100582.84;;;13.32;63.31
27805;BME280;15183;51.350;11.102;2022-10-31T06:12:51;100609.53;;;13.44;62.92
27805;BME280;15183;51.350;11.102;2022-10-31T06:15:17;100590.63;;;13.34;63.51
27805;BME280;15183;51.350;11.102;2022-10-31T06:17:44;100605.69;;;13.40;63.45
27805;BME280;15183;51.350;11.102;2022-10-31T06:20:11;100604.22;;;13.44;63.38
27805;BME280;15183;51.350;11.102;2022-10-31T06:22:37;100608.78;;;13.56;62.95
27805;BME280;15183;51.350;11.102;2022-10-31T06:25:04;100616.09;;;13.60;63.11
27805;BME280;15183;51.350;11.102;2022-10-31T06:27:30;100602.28;;;13.52;63.04
27805;BME280;15183;51.350;11.102;2022-10-31T06:29:57;100612.59;;;13.48;63.07
27805;BME280;15183;51.350;11.102;2022-10-31T06:32:23;100627.06;;;13.52;63.22
27805;BME280;15183;51.350;11.102;2022-10-31T06:34:50;100607.84;;;13.31;63.60
27805;BME280;15183;51.350;11.102;2022-10-31T06:37:16;100595.34;;;13.32;63.92
27805;BME280;15183;51.350;11.102;2022-10-31T06:39:42;100617.22;;;13.53;63.76
27805;BME280;15183;51.350;11.102;2022-10-31T06:42:09;100614.94;;;13.56;63.43
27805;BME280;15183;51.350;11.102;2022-10-31T06:44:35;100615.63;;;13.64;63.64
27805;BME280;15183;51.350;11.102;2022-10-31T06:47:02;100616.72;;;13.74;63.21
27805;BME280;15183;51.350;11.102;2022-10-31T06:49:28;100626.69;;;13.79;63.34
27805;BME280;15183;51.350;11.102;2022-10-31T06:51:55;100603.72;;;13.66;63.23
27805;BME280;15183;51.350;11.102;2022-10-31T06:54:21;100603.16;;;13.64;63.27
27805;BME280;15183;51.350;11.102;2022-10-31T06:56:48;100636.16;;;13.75;63.40
27805;BME280;15183;51.350;11.102;2022-10-31T06:59:15;100631.16;;;13.67;63.28
27805;BME280;15183;51.350;11.102;2022-10-31T07:01:42;100595.84;;;13.41;63.56
27805;BME280;15183;51.350;11.102;2022-10-31T07:04:11;100577.84;;;13.24;63.70
27805;BME280;15183;51.350;11.102;2022-10-31T07:06:38;100560.19;;;13.11;63.53
27805;BME280;15183;51.350;11.102;2022-10-31T07:09:05;100591.28;;;13.29;63.78
27805;BME280;15183;51.350;11.102;2022-10-31T07:11:31;100628.25;;;13.56;64.13
27805;BME280;15183;51.350;11.102;2022-10-31T07:13:58;100642.31;;;13.75;64.02
27805;BME280;15183;51.350;11.102;2022-10-31T07:16:24;100630.16;;;13.80;63.90
27805;BME280;15183;51.350;11.102;2022-10-31T07:18:51;100632.50;;;13.88;63.85
27805;BME280;15183;51.350;11.102;2022-10-31T07:21:17;100576.59;;;13.57;63.89
27805;BME280;15183;51.350;11.102;2022-10-31T07:23:44;100633.94;;;14.02;63.62
27805;BME280;15183;51.350;11.102;2022-10-31T07:26:13;100602.97;;;13.89;63.92
27805;BME280;15183;51.350;11.102;2022-10-31T07:28:39;100651.13;;;14.30;63.32
27805;BME280;15183;51.350;11.102;2022-10-31T07:31:05;100640.44;;;14.30;63.17
27805;BME280;15183;51.350;11.102;2022-10-31T07:33:32;100669.22;;;14.52;63.55
27805;BME280;15183;51.350;11.102;2022-10-31T07:35:59;100613.78;;;14.18;62.94
27805;BME280;15183;51.350;11.102;2022-10-31T07:38:26;100679.81;;;14.71;63.04
27805;BME280;15183;51.350;11.102;2022-10-31T07:40:52;100632.38;;;14.49;63.13
27805;BME280;15183;51.350;11.102;2022-10-31T07:43:19;100588.75;;;14.31;63.20
27805;BME280;15183;51.350;11.102;2022-10-31T07:45:51;100678.41;;;14.92;63.24
27805;BME280;15183;51.350;11.102;2022-10-31T07:48:18;100603.25;;;14.47;63.04
27805;BME280;15183;51.350;11.102;2022-10-31T07:50:45;100690.81;;;15.10;62.85
27805;BME280;15183;51.350;11.102;2022-10-31T07:53:13;100661.94;;;14.95;62.75
27805;BME280;15183;51.350;11.102;2022-10-31T07:55:40;100641.31;;;14.90;63.07
27805;BME280;15183;51.350;11.102;2022-10-31T07:58:13;100667.47;;;15.17;62.62
27805;BME280;15183;51.350;11.102;2022-10-31T08:00:43;100686.47;;;15.33;62.66
27805;BME280;15183;51.350;11.102;2022-10-31T08:03:16;100658.06;;;15.27;62.34
27805;BME280;15183;51.350;11.102;2022-10-31T08:05:43;100695.94;;;15.53;62.76
27805;BME280;15183;51.350;11.102;2022-10-31T08:08:13;100690.81;;;15.63;62.44
27805;BME280;15183;51.350;11.102;2022-10-31T08:10:39;100648.59;;;15.48;62.57
27805;BME280;15183;51.350;11.102;2022-10-31T08:13:10;100663.22;;;15.74;62.36
27805;BME280;15183;51.350;11.102;2022-10-31T08:15:37;100636.16;;;15.71;62.43
27805;BME280;15183;51.350;11.102;2022-10-31T08:18:06;100600.69;;;15.58;62.09
27805;BME280;15183;51.350;11.102;2022-10-31T08:20:36;100673.13;;;16.20;62.30
27805;BME280;15183;51.350;11.102;2022-10-31T08:23:04;100680.56;;;16.35;62.03
27805;BME280;15183;51.350;11.102;2022-10-31T08:25:33;100659.75;;;16.37;61.91
27805;BME280;15183;51.350;11.102;2022-10-31T08:28:00;100637.38;;;16.26;61.79
27805;BME280;15183;51.350;11.102;2022-10-31T08:30:31;100667.03;;;16.59;61.33
27805;BME280;15183;51.350;11.102;2022-10-31T08:33:12;100666.53;;;16.62;61.16
27805;BME280;15183;51.350;11.102;2022-10-31T08:35:39;100643.94;;;16.53;61.11
27805;BME280;15183;51.350;11.102;2022-10-31T08:38:08;100652.13;;;16.63;61.31
27805;BME280;15183;51.350;11.102;2022-10-31T08:40:36;100643.44;;;16.56;61.41
27805;BME280;15183;51.350;11.102;2022-10-31T08:45:37;100662.88;;;16.68;61.39
27805;BME280;15183;51.350;11.102;2022-10-31T08:48:08;100640.16;;;16.48;61.24
27805;BME280;15183;51.350;11.102;2022-10-31T08:50:36;100659.16;;;16.69;61.60
27805;BME280;15183;51.350;11.102;2022-10-31T08:53:07;100657.38;;;16.75;61.60
27805;BME280;15183;51.350;11.102;2022-10-31T08:55:37;100659.13;;;16.86;61.90
27805;BME280;15183;51.350;11.102;2022-10-31T08:58:07;100654.94;;;16.96;61.44
27805;BME280;15183;51.350;11.102;2022-10-31T09:00:34;100660.28;;;17.13;61.70
27805;BME280;15183;51.350;11.102;2022-10-31T09:03:10;100604.47;;;16.82;61.29
27805;BME280;15183;51.350;11.102;2022-10-31T09:05:37;100654.63;;;17.31;61.01
27805;BME280;15183;51.350;11.102;2022-10-31T09:08:05;100601.94;;;17.15;61.26
27805;BME280;15183;51.350;11.102;2022-10-31T09:10:34;100593.34;;;17.13;61.25
27805;BME280;15183;51.350;11.102;2022-10-31T09:13:04;100649.34;;;17.64;61.18
27805;BME280;15183;51.350;11.102;2022-10-31T09:15:36;100634.38;;;17.68;61.64
27805;BME280;15183;51.350;11.102;2022-10-31T09:18:05;100602.88;;;17.81;61.18
27805;BME280;15183;51.350;11.102;2022-10-31T09:20:33;100601.09;;;17.97;60.61
27805;BME280;15183;51.350;11.102;2022-10-31T09:23:08;100635.81;;;18.41;61.07
27805;BME280;15183;51.350;11.102;2022-10-31T09:25:35;100644.78;;;18.57;60.70
27805;BME280;15183;51.350;11.102;2022-10-31T09:28:04;100624.91;;;18.58;60.82
27805;BME280;15183;51.350;11.102;2022-10-31T09:30:33;100626.28;;;18.66;60.16
27805;BME280;15183;51.350;11.102;2022-10-31T09:33:20;100571.13;;;18.43;60.49
27805;BME280;15183;51.350;11.102;2022-10-31T09:35:47;100632.56;;;18.92;60.58
27805;BME280;15183;51.350;11.102;2022-10-31T09:38:19;100647.19;;;19.07;60.15
27805;BME280;15183;51.350;11.102;2022-10-31T09:50:27;100630.03;;;19.13;60.23
27805;BME280;15183;51.350;11.102;2022-10-31T09:53:23;100576.97;;;18.77;60.35
27805;BME280;15183;51.350;11.102;2022-10-31T09:55:53;100627.88;;;19.15;60.15
27805;BME280;15183;51.350;11.102;2022-10-31T09:58:28;100626.81;;;19.16;60.05
27805;BME280;15183;51.350;11.102;2022-10-31T10:00:59;100632.47;;;19.25;60.31
27805;BME280;15183;51.350;11.102;2022-10-31T10:03:46;100627.91;;;19.31;59.94
27805;BME280;15183;51.350;11.102;2022-10-31T10:06:27;100621.47;;;19.32;60.08
27805;BME280;15183;51.350;11.102;2022-10-31T10:08:55;100615.28;;;19.31;60.22
27805;BME280;15183;51.350;11.102;2022-10-31T10:12:09;100620.16;;;19.45;60.16
27805;BME280;15183;51.350;11.102;2022-10-31T10:23:21;100611.59;;;19.58;59.92
27805;BME280;15183;51.350;11.102;2022-10-31T10:26:06;100578.25;;;19.54;59.98
27805;BME280;15183;51.350;11.102;2022-10-31T10:28:41;100566.41;;;19.50;60.12
27805;BME280;15183;51.350;11.102;2022-10-31T10:31:23;100579.34;;;19.69;60.07
27805;BME280;15183;51.350;11.102;2022-10-31T10:36:40;100591.22;;;19.93;59.94
27805;BME280;15183;51.350;11.102;2022-10-31T10:39:20;100597.38;;;20.04;59.73
27805;BME280;15183;51.350;11.102;2022-10-31T10:41:50;100578.84;;;19.98;59.95
27805;BME280;15183;51.350;11.102;2022-10-31T10:44:43;100580.69;;;20.07;59.66
27805;BME280;15183;51.350;11.102;2022-10-31T10:47:44;100587.13;;;20.32;59.23
27805;BME280;15183;51.350;11.102;2022-10-31T10:50:25;100595.97;;;20.48;58.82
27805;BME280;15183;51.350;11.102;2022-10-31T10:53:34;100588.63;;;20.70;59.29
27805;BME280;15183;51.350;11.102;2022-10-31T10:56:21;100588.31;;;20.87;59.20
27805;BME280;15183;51.350;11.102;2022-10-31T10:58:57;100572.09;;;20.97;58.37
27805;BME280;15183;51.350;11.102;2022-10-31T11:01:24;100578.75;;;21.15;57.66
27805;BME280;15183;51.350;11.102;2022-10-31T11:03:51;100573.31;;;21.20;57.39
27805;BME280;15183;51.350;11.102;2022-10-31T11:06:22;100526.59;;;20.95;57.16
27805;BME280;15183;51.350;11.102;2022-10-31T11:08:52;100543.72;;;21.15;57.19
27805;BME280;15183;51.350;11.102;2022-10-31T11:11:32;100551.22;;;21.23;57.31
27805;BME280;15183;51.350;11.102;2022-10-31T11:14:13;100561.06;;;21.38;57.48
27805;BME280;15183;51.350;11.102;2022-10-31T11:16:46;100558.66;;;21.37;56.81
27805;BME280;15183;51.350;11.102;2022-10-31T11:19:24;100477.88;;;20.87;57.02
27805;BME280;15183;51.350;11.102;2022-10-31T11:21:53;100539.59;;;21.28;57.33
27805;BME280;15183;51.350;11.102;2022-10-31T11:24:24;100559.97;;;21.45;57.41
27805;BME280;15183;51.350;11.102;2022-10-31T11:27:20;100556.19;;;21.46;57.16
27805;BME280;15183;51.350;11.102;2022-10-31T11:29:48;100550.22;;;21.49;57.03
27805;BME280;15183;51.350;11.102;2022-10-31T11:32:26;100537.50;;;21.54;57.35
27805;BME280;15183;51.350;11.102;2022-10-31T11:34:56;100480.63;;;21.21;57.36
27805;BME280;15183;51.350;11.102;2022-10-31T11:37:31;100497.75;;;21.36;56.85
27805;BME280;15183;51.350;11.102;2022-10-31T11:40:06;100515.34;;;21.63;56.94
27805;BME280;15183;51.350;11.102;2022-10-31T11:42:41;100532.22;;;21.79;57.06
27805;BME280;15183;51.350;11.102;2022-10-31T11:45:33;100528.91;;;21.87;57.22
27805;BME280;15183;51.350;11.102;2022-10-31T11:48:16;100517.03;;;21.88;56.63
27805;BME280;15183;51.350;11.102;2022-10-31T11:50:54;100522.56;;;21.97;56.92
27805;BME280;15183;51.350;11.102;2022-10-31T11:53:33;100511.25;;;22.00;56.44
27805;BME280;15183;51.350;11.102;2022-10-31T11:56:15;100523.28;;;22.08;56.46
27805;BME280;15183;51.350;11.102;2022-10-31T11:58:42;100470.97;;;21.79;56.25
27805;BME280;15183;51.350;11.102;2022-10-31T12:01:27;100488.94;;;21.89;56.45
27805;BME280;15183;51.350;11.102;2022-10-31T12:04:10;100510.09;;;22.06;56.62
27805;BME280;15183;51.350;11.102;2022-10-31T12:06:40;100458.56;;;21.78;56.19
27805;BME280;15183;51.350;11.102;2022-10-31T12:09:29;100505.66;;;22.16;56.71
27805;BME280;15183;51.350;11.102;2022-10-31T12:26:42;100494.28;;;22.19;56.83
27805;BME280;15183;51.350;11.102;2022-10-31T12:46:28;100474.75;;;22.27;56.41
27805;BME280;15183;51.350;11.102;2022-10-31T12:53:02;100468.16;;;22.38;56.17
27805;BME280;15183;51.350;11.102;2022-10-31T12:58:31;100457.28;;;22.44;55.88
27805;BME280;15183;51.350;11.102;2022-10-31T13:01:13;100448.88;;;22.45;56.22
27805;BME280;15183;51.350;11.102;2022-10-31T13:03:58;100440.00;;;22.45;56.15
27805;BME280;15183;51.350;11.102;2022-10-31T13:06:39;100439.38;;;22.53;56.30
27805;BME280;15183;51.350;11.102;2022-10-31T13:09:11;100435.28;;;22.55;56.27
27805;BME280;15183;51.350;11.102;2022-10-31T13:11:51;100440.63;;;22.61;56.24
27805;BME280;15183;51.350;11.102;2022-10-31T13:14:47;100447.91;;;22.60;55.98
27805;BME280;15183;51.350;11.102;2022-10-31T13:17:47;100435.78;;;22.58;56.27
27805;BME280;15183;51.350;11.102;2022-10-31T13:20:32;100437.03;;;22.65;56.07
27805;BME280;15183;51.350;11.102;2022-10-31T13:23:32;100433.22;;;22.66;56.37
27805;BME280;15183;51.350;11.102;2022-10-31T13:26:08;100436.75;;;22.67;56.36
27805;BME280;15183;51.350;11.102;2022-10-31T13:28:46;100431.53;;;22.70;55.76
27805;BME280;15183;51.350;11.102;2022-10-31T13:31:14;100429.34;;;22.73;56.35
27805;BME280;15183;51.350;11.102;2022-10-31T13:33:49;100412.50;;;22.62;56.01
27805;BME280;15183;51.350;11.102;2022-10-31T13:42:29;100407.69;;;22.59;55.94
27805;BME280;15183;51.350;11.102;2022-10-31T13:45:23;100396.44;;;22.51;56.10
27805;BME280;15183;51.350;11.102;2022-10-31T13:50:55;100389.72;;;22.49;56.25
27805;BME280;15183;51.350;11.102;2022-10-31T13:53:34;100378.75;;;22.40;56.36
27805;BME280;15183;51.350;11.102;2022-10-31T14:01:35;100362.47;;;22.26;56.65
27805;BME280;15183;51.350;11.102;2022-10-31T14:05:05;100367.34;;;22.24;56.70
27805;BME280;15183;51.350;11.102;2022-10-31T14:07:16;100371.66;;;22.25;56.64
27805;BME280;15183;51.350;11.102;2022-10-31T14:12:43;100359.63;;;22.17;56.99
27805;BME280;15183;51.350;11.102;2022-10-31T14:15:25;100371.53;;;22.16;57.20
27805;BME280;15183;51.350;11.102;2022-10-31T14:18:04;100363.78;;;22.09;56.80
27805;BME280;15183;51.350;11.102;2022-10-31T14:20:40;100369.34;;;22.18;56.92
27805;BME280;15183;51.350;11.102;2022-10-31T14:29:01;100366.53;;;22.04;57.76
27805;BME280;15183;51.350;11.102;2022-10-31T14:31:51;100357.34;;;22.05;57.58
27805;BME280;15183;51.350;11.102;2022-10-31T14:34:28;100360.34;;;22.04;57.29
27805;BME280;15183;51.350;11.102;2022-10-31T14:43:11;100353.53;;;21.87;57.79
27805;BME280;15183;51.350;11.102;2022-10-31T14:48:34;100349.56;;;21.79;57.48
27805;BME280;15183;51.350;11.102;2022-10-31T14:51:16;100352.84;;;21.76;57.94
27805;BME280;15183;51.350;11.102;2022-10-31T14:53:53;100347.22;;;21.73;57.64
27805;BME280;15183;51.350;11.102;2022-10-31T14:56:30;100348.09;;;21.68;57.77
27805;BME280;15183;51.350;11.102;2022-10-31T14:59:08;100342.75;;;21.63;57.49
27805;BME280;15183;51.350;11.102;2022-10-31T15:01:37;100304.97;;;21.38;58.08
27805;BME280;15183;51.350;11.102;2022-10-31T15:04:28;100339.28;;;21.57;57.86
27805;BME280;15183;51.350;11.102;2022-10-31T15:07:24;100339.09;;;21.48;57.83
27805;BME280;15183;51.350;11.102;2022-10-31T15:10:05;100309.91;;;21.31;58.05
27805;BME280;15183;51.350;11.102;2022-10-31T15:12:34;100317.94;;;21.36;58.13